createdAt,value
2019-03-27T00:01:48.921Z,10.60
2019-03-27T00:04:20.487Z,10.98
2019-03-27T00:06:50.932Z,11.50
2019-03-27T00:09:21.071Z,11.08
2019-03-27T00:11:51.706Z,10.43
2019-03-27T00:16:55.969Z,11.70
2019-03-27T00:19:26.206Z,12.18
2019-03-27T00:21:56.968Z,11.85
2019-03-27T00:24:26.983Z,12.88
2019-03-27T00:26:56.997Z,13.05
2019-03-27T00:29:27.152Z,12.40
2019-03-27T00:31:57.813Z,13.10
2019-03-27T00:34:27.905Z,12.58
2019-03-27T00:36:58.303Z,12.30
2019-03-27T00:39:28.804Z,12.58
2019-03-27T00:41:59.031Z,13.28
2019-03-27T00:44:29.603Z,13.22
2019-03-27T00:46:59.504Z,13.32
2019-03-27T00:49:29.547Z,12.73
2019-03-27T00:51:59.930Z,13.38
2019-03-27T00:54:30.555Z,12.82
2019-03-27T00:57:00.966Z,13.90
2019-03-27T00:59:31.744Z,12.85
2019-03-27T01:04:31.307Z,12.00
2019-03-27T01:07:01.964Z,11.22
2019-03-27T01:09:32.518Z,12.20
2019-03-27T01:12:02.948Z,11.50
2019-03-27T01:14:33.558Z,11.97
2019-03-27T01:17:03.986Z,12.20
2019-03-27T01:19:35.468Z,12.53
2019-03-27T01:22:05.890Z,12.30
2019-03-27T01:24:36.299Z,12.85
2019-03-27T01:27:06.753Z,13.28
2019-03-27T01:32:06.286Z,13.20
2019-03-27T01:34:36.759Z,13.22
2019-03-27T01:37:07.082Z,12.93
2019-03-27T01:39:37.527Z,12.63
2019-03-27T01:42:08.188Z,13.32
2019-03-27T01:44:38.719Z,12.15
2019-03-27T01:47:08.989Z,13.18
2019-03-27T01:49:39.144Z,13.30
2019-03-27T01:52:10.272Z,13.45
2019-03-27T01:54:40.891Z,13.93
2019-03-27T01:57:11.066Z,13.50
2019-03-27T01:59:41.560Z,15.43
2019-03-27T02:02:12.576Z,16.12
2019-03-27T02:04:43.128Z,15.72
2019-03-27T02:07:13.619Z,15.08
2019-03-27T02:09:43.938Z,15.15
2019-03-27T02:12:14.082Z,16.37
2019-03-27T02:14:44.566Z,16.40
2019-03-27T02:17:14.863Z,17.55
2019-03-27T02:19:45.030Z,16.70
2019-03-27T02:22:15.911Z,17.57
2019-03-27T02:24:46.302Z,17.25
2019-03-27T02:27:16.722Z,17.35
2019-03-27T02:32:20.266Z,17.62
2019-03-27T02:34:48.090Z,16.70
2019-03-27T02:37:18.576Z,17.55
2019-03-27T02:39:48.955Z,17.40
2019-03-27T02:42:19.096Z,17.02
2019-03-27T02:44:49.936Z,17.57
2019-03-27T02:47:20.296Z,17.48
2019-03-27T02:49:50.737Z,17.42
2019-03-27T02:54:51.046Z,16.55
2019-03-27T02:59:11.965Z,18.65
2019-03-27T03:01:42.405Z,19.40
2019-03-27T03:04:12.936Z,18.23
2019-03-27T03:06:43.050Z,19.02
2019-03-27T03:09:13.615Z,17.73
2019-03-27T03:11:43.958Z,18.15
2019-03-27T03:14:13.945Z,18.25
2019-03-27T03:16:44.430Z,18.00
2019-03-27T03:19:14.877Z,18.52
2019-03-27T03:21:46.577Z,17.62
2019-03-27T03:24:16.865Z,18.40
2019-03-27T03:26:50.600Z,18.57
2019-03-27T03:29:19.530Z,17.55
2019-03-27T03:31:49.922Z,17.40
2019-03-27T03:34:20.047Z,16.77
2019-03-27T03:36:51.755Z,18.27
2019-03-27T03:41:51.487Z,17.65
2019-03-27T03:44:21.913Z,17.40
2019-03-27T03:46:59.471Z,17.62
2019-03-27T03:49:24.033Z,17.62
2019-03-27T03:51:54.735Z,18.00
2019-03-27T03:56:57.704Z,18.87
2019-03-27T04:02:03.867Z,18.05
2019-03-27T04:04:36.918Z,18.10
2019-03-27T04:07:07.017Z,18.80
2019-03-27T04:09:37.569Z,19.37
2019-03-27T04:12:07.808Z,19.07
2019-03-27T04:14:37.938Z,18.10
2019-03-27T04:17:17.102Z,18.55
2019-03-27T04:19:40.425Z,18.80
2019-03-27T04:22:10.934Z,19.40
2019-03-27T04:24:41.318Z,18.25
2019-03-27T04:27:11.866Z,17.95
2019-03-27T04:29:42.404Z,19.25
2019-03-27T04:32:13.833Z,17.62
2019-03-27T04:34:47.189Z,18.15
2019-03-27T04:37:18.118Z,19.00
2019-03-27T04:39:48.884Z,18.12
2019-03-27T04:42:21.315Z,18.75
2019-03-27T04:44:52.060Z,18.37
2019-03-27T04:47:32.185Z,18.48
2019-03-27T04:49:56.521Z,18.70
2019-03-27T04:52:27.537Z,19.15
2019-03-27T04:54:58.051Z,19.17
2019-03-27T04:57:29.425Z,18.50
2019-03-27T05:00:00.046Z,17.73
2019-03-27T05:02:31.348Z,18.15
2019-03-27T05:05:03.808Z,18.27
2019-03-27T05:07:34.393Z,18.82
2019-03-27T05:10:05.510Z,19.82
2019-03-27T05:12:38.426Z,18.25
2019-03-27T05:17:45.761Z,19.37
2019-03-27T05:20:10.651Z,18.35
2019-03-27T05:22:40.893Z,17.85
2019-03-27T05:25:12.003Z,19.75
2019-03-27T05:27:42.738Z,19.55
2019-03-27T05:30:17.726Z,19.67
2019-03-27T05:35:18.306Z,19.50
2019-03-27T05:37:49.312Z,19.85
2019-03-27T05:40:19.958Z,19.42
2019-03-27T05:43:00.494Z,19.92
2019-03-27T05:45:23.993Z,20.90
2019-03-27T05:47:59.862Z,19.12
2019-03-27T05:50:27.449Z,19.02
2019-03-27T05:52:57.959Z,20.20
2019-03-27T05:55:28.979Z,20.92
2019-03-27T05:58:00.150Z,20.52
2019-03-27T06:00:33.411Z,20.88
2019-03-27T06:03:03.674Z,20.02
2019-03-27T06:05:34.212Z,19.67
2019-03-27T06:08:05.152Z,19.27
2019-03-27T06:10:36.093Z,20.80
2019-03-27T06:13:07.535Z,20.00
2019-03-27T06:15:38.506Z,21.10
2019-03-27T06:18:13.248Z,19.98
2019-03-27T06:23:12.443Z,19.55
2019-03-27T06:25:42.779Z,20.40
2019-03-27T06:28:12.954Z,19.57
2019-03-27T06:30:44.065Z,19.27
2019-03-27T06:33:15.291Z,21.15
2019-03-27T06:35:45.822Z,21.45
2019-03-27T06:38:16.898Z,21.05
2019-03-27T06:40:47.759Z,21.07
2019-03-27T06:43:18.819Z,20.72
2019-03-27T06:45:49.008Z,20.85
2019-03-27T06:48:26.146Z,20.48
2019-03-27T06:50:53.044Z,20.82
2019-03-27T06:53:24.105Z,21.40
2019-03-27T06:55:55.595Z,19.98
2019-03-27T06:58:26.722Z,21.50
2019-03-27T07:03:27.287Z,19.42
2019-03-27T07:05:58.468Z,21.33
2019-03-27T07:08:29.147Z,20.68
2019-03-27T07:11:00.437Z,20.85
2019-03-27T07:13:31.625Z,21.55
2019-03-27T07:21:04.325Z,21.37
2019-03-27T07:23:35.491Z,21.65
2019-03-27T07:26:06.649Z,20.70
2019-03-27T07:31:06.958Z,20.85
2019-03-27T07:33:38.288Z,22.17
2019-03-27T07:36:09.451Z,21.90
2019-03-27T07:38:41.289Z,21.33
2019-03-27T07:41:12.290Z,21.62
2019-03-27T07:43:43.502Z,21.48
2019-03-27T07:46:14.646Z,21.97
2019-03-27T07:48:53.720Z,21.42
2019-03-27T07:51:19.298Z,20.90
2019-03-27T07:53:51.291Z,22.50
2019-03-27T07:56:21.731Z,21.75
2019-03-27T08:01:22.322Z,20.72
2019-03-27T08:03:53.448Z,20.57
2019-03-27T08:06:23.783Z,21.07
2019-03-27T08:11:24.177Z,21.12
2019-03-27T08:13:54.763Z,21.15
2019-03-27T08:16:25.026Z,20.72
2019-03-27T08:19:06.846Z,20.90
2019-03-27T08:21:31.220Z,19.42
2019-03-27T08:24:02.296Z,19.20
2019-03-27T08:26:32.821Z,20.15
2019-03-27T08:29:04.290Z,20.37
2019-03-27T08:31:35.325Z,20.68
2019-03-27T08:34:06.819Z,20.12
2019-03-27T08:36:37.975Z,20.52
2019-03-27T08:39:09.967Z,20.08
2019-03-27T08:41:41.464Z,20.70
2019-03-27T08:44:11.948Z,18.73
2019-03-27T08:46:42.819Z,17.50
2019-03-27T08:49:21.903Z,18.37
2019-03-27T08:54:16.142Z,19.92
2019-03-27T08:56:46.955Z,18.42
2019-03-27T08:59:17.771Z,18.20
2019-03-27T09:01:48.518Z,18.12
2019-03-27T09:04:19.198Z,17.75
2019-03-27T09:06:50.102Z,16.90
2019-03-27T09:09:20.738Z,18.30
2019-03-27T09:11:51.968Z,19.62
2019-03-27T09:14:25.511Z,19.85
2019-03-27T09:16:56.328Z,19.82
2019-03-27T09:19:35.694Z,17.95
2019-03-27T09:21:59.979Z,17.25
2019-03-27T09:24:30.946Z,19.25
2019-03-27T09:27:01.943Z,18.65
2019-03-27T09:29:33.306Z,17.37
2019-03-27T09:32:04.326Z,18.70
2019-03-27T09:34:35.024Z,16.55
2019-03-27T09:37:06.306Z,12.78
2019-03-27T09:39:36.821Z,15.65
2019-03-27T09:42:08.372Z,14.93
2019-03-27T09:44:38.994Z,14.05
2019-03-27T09:47:10.053Z,13.88
2019-03-27T09:49:49.528Z,8.23
2019-03-27T09:52:14.334Z,5.95
2019-03-27T09:54:44.950Z,7.47
2019-03-27T09:57:15.652Z,6.67
2019-03-27T10:02:16.369Z,6.65
2019-03-27T10:04:47.545Z,6.67
2019-03-27T10:07:18.650Z,6.28
2019-03-27T10:12:21.037Z,4.90
2019-03-27T10:14:52.078Z,4.58
2019-03-27T10:17:23.022Z,4.53
2019-03-27T10:20:03.324Z,4.12
2019-03-27T10:22:26.345Z,3.80
2019-03-27T10:24:57.146Z,3.12
2019-03-27T10:27:27.588Z,3.62
2019-03-27T10:29:57.951Z,3.00
2019-03-27T10:32:28.099Z,3.52
2019-03-27T10:34:58.865Z,4.37
2019-03-27T10:37:28.950Z,4.55
2019-03-27T10:39:59.600Z,4.92
2019-03-27T10:42:29.981Z,4.70
2019-03-27T10:45:00.031Z,4.37
2019-03-27T10:47:30.570Z,4.58
2019-03-27T10:50:00.921Z,4.50
2019-03-27T10:52:31.106Z,4.50
2019-03-27T10:55:01.744Z,3.85
2019-03-27T10:57:32.024Z,3.50
2019-03-27T11:00:02.994Z,3.85
2019-03-27T11:02:34.839Z,4.20
2019-03-27T11:05:05.459Z,4.85
2019-03-27T11:07:36.309Z,4.72
2019-03-27T11:10:07.777Z,4.35
2019-03-27T11:12:38.389Z,4.00
2019-03-27T11:15:10.762Z,3.30
2019-03-27T11:17:41.235Z,3.50
2019-03-27T11:20:12.521Z,3.22
2019-03-27T11:22:43.537Z,4.17
2019-03-27T11:27:49.000Z,3.65
2019-03-27T11:30:25.516Z,4.20
2019-03-27T11:32:57.795Z,3.77
2019-03-27T11:35:29.294Z,3.35
2019-03-27T11:38:01.300Z,3.27
2019-03-27T11:40:32.895Z,3.52
2019-03-27T11:43:05.129Z,4.12
2019-03-27T11:45:37.816Z,4.00
2019-03-27T11:48:09.498Z,4.12
2019-03-27T11:50:45.309Z,4.10
2019-03-27T12:00:54.799Z,3.92
2019-03-27T12:03:22.617Z,4.28
2019-03-27T12:05:52.967Z,3.98
2019-03-27T12:08:23.869Z,4.00
2019-03-27T12:10:54.367Z,4.45
2019-03-27T12:13:25.432Z,4.47
2019-03-27T12:15:56.363Z,3.98
2019-03-27T12:18:27.053Z,4.10
2019-03-27T12:20:59.783Z,3.60
2019-03-27T12:23:30.765Z,4.00
2019-03-27T12:26:02.059Z,3.50
2019-03-27T12:28:32.966Z,3.60
2019-03-27T12:31:03.969Z,3.12
2019-03-27T12:33:35.312Z,3.95
2019-03-27T12:36:06.491Z,4.50
2019-03-27T12:38:38.933Z,5.17
2019-03-27T12:41:10.319Z,6.15
2019-03-27T12:43:42.521Z,6.28
2019-03-27T12:46:13.695Z,5.22
2019-03-27T12:51:14.295Z,5.97
2019-03-27T12:53:44.939Z,6.28
2019-03-27T12:56:15.726Z,5.80
2019-03-27T12:58:46.305Z,5.70
2019-03-27T13:01:17.803Z,5.70
2019-03-27T13:03:48.817Z,5.60
2019-03-27T13:06:20.299Z,5.70
2019-03-27T13:08:52.077Z,4.95
2019-03-27T13:11:23.301Z,5.25
2019-03-27T13:13:54.073Z,4.85
2019-03-27T13:16:24.932Z,5.17
2019-03-27T13:18:56.374Z,5.22
2019-03-27T13:21:27.118Z,5.65
2019-03-27T13:23:58.488Z,4.58
2019-03-27T13:26:29.595Z,4.90
2019-03-27T13:29:01.566Z,4.85
2019-03-27T13:31:32.297Z,4.83
2019-03-27T13:34:03.311Z,4.58
2019-03-27T13:36:36.536Z,5.05
2019-03-27T13:39:09.315Z,5.37
2019-03-27T13:41:40.572Z,5.60
2019-03-27T13:44:11.596Z,5.03
2019-03-27T13:49:12.538Z,4.72
2019-03-27T13:51:43.978Z,4.25
2019-03-27T13:54:14.738Z,4.65
2019-03-27T13:56:45.459Z,4.35
2019-03-27T13:59:16.498Z,4.95
2019-03-27T14:01:47.190Z,4.60
2019-03-27T14:04:18.094Z,4.87
2019-03-27T14:06:49.660Z,4.58
2019-03-27T14:11:50.514Z,4.50
2019-03-27T14:14:21.625Z,4.78
2019-03-27T14:19:23.482Z,4.40
2019-03-27T14:21:55.213Z,4.40
2019-03-27T14:24:26.456Z,4.05
2019-03-27T14:26:56.995Z,4.50
2019-03-27T14:29:27.562Z,4.08
2019-03-27T14:31:58.605Z,4.30
2019-03-27T14:34:29.309Z,3.95
2019-03-27T14:37:00.423Z,4.40
2019-03-27T14:39:31.602Z,3.85
2019-03-27T14:42:03.275Z,3.55
2019-03-27T14:44:36.417Z,3.52
2019-03-27T14:47:08.293Z,3.83
2019-03-27T14:49:39.599Z,3.52
2019-03-27T14:54:41.483Z,3.72
2019-03-27T14:57:13.474Z,3.92
2019-03-27T15:02:15.295Z,3.65
2019-03-27T15:04:46.291Z,3.98
2019-03-27T15:07:17.578Z,4.22
2019-03-27T15:12:19.286Z,3.65
2019-03-27T15:14:50.451Z,3.67
2019-03-27T15:17:21.290Z,3.70
2019-03-27T15:19:51.968Z,4.50
2019-03-27T15:22:23.034Z,4.03
2019-03-27T15:24:54.292Z,3.55
2019-03-27T15:27:25.055Z,3.95
2019-03-27T15:29:56.039Z,4.10
2019-03-27T15:32:27.780Z,4.03
2019-03-27T15:37:28.497Z,4.33
2019-03-27T15:40:00.478Z,4.55
2019-03-27T15:42:31.327Z,4.10
2019-03-27T15:45:02.310Z,3.83
2019-03-27T15:47:34.466Z,3.83
2019-03-27T15:50:05.608Z,4.20
2019-03-27T15:52:37.093Z,3.80
2019-03-27T15:55:08.825Z,3.62
2019-03-27T15:57:40.412Z,3.33
2019-03-27T16:02:42.895Z,4.03
2019-03-27T16:05:14.299Z,3.95
2019-03-27T16:07:46.772Z,3.85
2019-03-27T16:10:19.515Z,4.00
2019-03-27T16:15:20.516Z,3.87
2019-03-27T16:17:52.745Z,3.77
2019-03-27T16:20:24.126Z,3.80
2019-03-27T16:22:55.977Z,4.08
2019-03-27T16:25:27.571Z,4.05
2019-03-27T16:27:58.685Z,4.08
2019-03-27T16:32:59.102Z,4.42
2019-03-27T16:35:29.809Z,4.15
2019-03-27T16:38:00.350Z,3.98
2019-03-27T16:40:49.097Z,3.85
2019-03-27T16:43:19.986Z,3.98
2019-03-27T16:45:51.022Z,4.75
2019-03-27T16:48:21.753Z,3.77
2019-03-27T16:50:52.030Z,4.10
2019-03-27T16:53:22.977Z,3.80
2019-03-27T16:55:53.103Z,3.52
2019-03-27T16:58:23.677Z,3.95
2019-03-27T17:03:23.510Z,5.22
2019-03-27T17:10:54.855Z,3.62
2019-03-27T17:13:26.535Z,3.20
2019-03-27T17:15:57.407Z,3.52
2019-03-27T17:18:28.281Z,3.42
2019-03-27T17:20:58.974Z,3.47
2019-03-27T17:23:30.491Z,3.55
2019-03-27T17:26:01.201Z,3.22
2019-03-27T17:28:33.015Z,3.10
2019-03-27T17:31:03.932Z,3.08
2019-03-27T17:33:34.468Z,3.20
2019-03-27T17:38:34.253Z,3.45
2019-03-27T17:41:04.851Z,3.00
2019-03-27T17:43:35.209Z,3.83
2019-03-27T17:46:05.975Z,3.10
2019-03-27T17:48:36.895Z,2.87
2019-03-27T17:51:07.979Z,3.05
2019-03-27T17:53:39.053Z,2.65
2019-03-27T17:56:10.026Z,3.12
2019-03-27T17:58:40.949Z,3.27
2019-03-27T18:01:11.927Z,2.75
2019-03-27T18:03:43.007Z,2.72
2019-03-27T18:06:13.445Z,2.50
2019-03-27T18:08:44.120Z,2.87
2019-03-27T18:11:15.106Z,2.65
2019-03-27T18:13:46.110Z,2.92
2019-03-27T18:16:17.428Z,2.92
2019-03-27T18:18:47.943Z,3.40
2019-03-27T18:21:21.286Z,3.50
2019-03-27T18:23:52.069Z,3.08
2019-03-27T18:26:23.349Z,3.22
2019-03-27T18:28:53.982Z,3.65
2019-03-27T18:31:25.518Z,4.35
2019-03-27T18:33:56.314Z,3.65
2019-03-27T18:36:27.333Z,3.10
2019-03-27T18:38:58.051Z,2.92
2019-03-27T18:41:44.012Z,3.42
2019-03-27T18:44:15.102Z,3.15
2019-03-27T18:46:46.705Z,3.00
2019-03-27T18:51:47.072Z,3.30
2019-03-27T18:54:18.639Z,3.45
2019-03-27T18:59:19.084Z,2.80
2019-03-27T19:01:50.008Z,3.40
2019-03-27T19:04:21.326Z,3.72
2019-03-27T19:06:52.063Z,4.00
2019-03-27T19:09:22.810Z,3.52
2019-03-27T19:11:52.963Z,3.98
2019-03-27T19:14:23.397Z,3.47
2019-03-27T19:16:54.302Z,3.60
2019-03-27T19:19:25.165Z,3.85
2019-03-27T19:21:57.795Z,4.12
2019-03-27T19:24:28.575Z,3.95
2019-03-27T19:26:59.422Z,3.85
2019-03-27T19:29:30.110Z,4.05
2019-03-27T19:32:00.974Z,3.90
2019-03-27T19:34:31.974Z,3.98
2019-03-27T19:37:03.908Z,4.00
2019-03-27T19:39:34.985Z,3.90
2019-03-27T19:42:05.993Z,3.30
2019-03-27T19:44:37.290Z,3.87
2019-03-27T19:47:07.995Z,3.83
2019-03-27T19:49:38.834Z,4.22
2019-03-27T19:52:10.373Z,3.55
2019-03-27T19:54:41.159Z,3.65
2019-03-27T19:57:12.530Z,3.70
2019-03-27T19:59:44.659Z,3.50
2019-03-27T20:04:46.410Z,3.87
2019-03-27T20:07:17.696Z,3.90
2019-03-27T20:09:48.911Z,3.40
2019-03-27T20:12:20.520Z,3.90
2019-03-27T20:14:51.513Z,4.87
2019-03-27T20:17:22.579Z,6.28
2019-03-27T20:19:53.915Z,6.90
2019-03-27T20:22:25.010Z,6.55
2019-03-27T20:24:56.085Z,6.42
2019-03-27T20:27:27.320Z,5.22
2019-03-27T20:29:58.543Z,4.92
2019-03-27T20:32:29.823Z,5.60
2019-03-27T20:35:00.797Z,5.60
2019-03-27T20:37:32.002Z,6.35
2019-03-27T20:40:03.154Z,6.95
2019-03-27T20:42:34.164Z,5.35
2019-03-27T20:45:08.923Z,6.35
2019-03-27T20:47:40.271Z,5.35
2019-03-27T20:50:12.981Z,5.03
2019-03-27T20:52:44.591Z,5.12
2019-03-27T20:55:29.563Z,4.97
2019-03-27T20:57:51.584Z,5.03
2019-03-27T21:00:24.628Z,5.58
2019-03-27T21:02:57.560Z,6.35
2019-03-27T21:07:59.628Z,4.80
2019-03-27T21:13:00.343Z,5.22
2019-03-27T21:15:31.306Z,5.50
2019-03-27T21:18:02.552Z,5.60
2019-03-27T21:20:33.560Z,6.23
2019-03-27T21:23:04.561Z,5.03
2019-03-27T21:30:35.175Z,4.55
2019-03-27T21:33:07.918Z,4.15
2019-03-27T21:35:39.126Z,4.08
2019-03-27T21:38:10.450Z,4.10
2019-03-27T21:40:41.305Z,4.37
2019-03-27T21:43:12.327Z,4.72
2019-03-27T21:45:43.659Z,5.00
2019-03-27T21:48:14.558Z,4.50
2019-03-27T21:50:45.323Z,4.72
2019-03-27T21:53:15.949Z,4.92
2019-03-27T21:55:46.805Z,4.55
2019-03-27T21:58:18.511Z,4.80
2019-03-27T22:00:49.069Z,5.20
2019-03-27T22:03:20.536Z,5.40
2019-03-27T22:05:51.362Z,5.00
2019-03-27T22:08:22.810Z,6.17
2019-03-27T22:10:53.463Z,5.62
2019-03-27T22:13:24.061Z,5.67
2019-03-27T22:15:55.006Z,5.92
2019-03-27T22:18:26.010Z,5.80
2019-03-27T22:20:56.780Z,4.90
2019-03-27T22:25:57.271Z,4.70
2019-03-27T22:28:28.306Z,4.97
2019-03-27T22:30:59.005Z,4.90
2019-03-27T22:33:47.054Z,5.00
2019-03-27T22:36:18.139Z,4.78
2019-03-27T22:38:49.118Z,5.30
2019-03-27T22:41:19.812Z,5.75
2019-03-27T22:46:21.034Z,5.28
2019-03-27T22:48:53.030Z,5.08
2019-03-27T22:51:24.917Z,5.30
2019-03-27T22:53:55.750Z,5.17
2019-03-27T22:58:56.844Z,5.15
2019-03-27T23:01:46.461Z,5.12
2019-03-27T23:04:17.006Z,5.22
2019-03-27T23:06:47.670Z,5.53
2019-03-27T23:09:18.308Z,4.87
2019-03-27T23:11:49.330Z,5.22
2019-03-27T23:14:19.993Z,5.17
2019-03-27T23:16:50.737Z,5.00
2019-03-27T23:19:21.007Z,5.22
2019-03-27T23:21:52.293Z,5.08
2019-03-27T23:24:23.060Z,5.00
2019-03-27T23:26:53.841Z,5.37
2019-03-27T23:29:25.009Z,5.53
2019-03-27T23:31:55.933Z,6.35
2019-03-27T23:34:26.330Z,5.30
2019-03-27T23:36:57.428Z,5.25
2019-03-27T23:39:28.346Z,5.42
2019-03-27T23:41:58.950Z,4.92
2019-03-27T23:44:30.897Z,5.72
2019-03-27T23:47:01.375Z,5.67
2019-03-27T23:49:32.317Z,5.45
2019-03-27T23:52:02.989Z,5.78
2019-03-27T23:54:34.299Z,6.85
2019-03-27T23:57:05.019Z,7.78
2019-03-27T23:59:35.060Z,6.72
